• Join FlightAware (Why Join?)
  • Login
  • US Flag 
02:26PM EDT


 

Airport Tracker/Info


-or-


 

Live Flight TrackerFlight Track Log ✈ N770NC ✈ 12-Jun-2013 ✈ KATL - KORD

Flight Track Log - Related Links

Times and Time Zones

All times are in EDT time to prevent confusion due to time zone crossing. See the N770NC flight status page for this flight to view local times or setup timezone preferences in your user account.

Time Position Orientation Groundspeed Altitude Reporting Facility
EDT Latitude Longitude Course Direction KTS MPH feet Rate Location/Type
12:34PM 33.6500 -84.4500 349° North 168 193 2,300  Level Atlanta TRACON
12:35PM 33.6667 -84.5333 284° West 259 298 3,600 1,860 Climbing Atlanta TRACON
12:36PM 33.7167 -84.5833 320° Northwest 264 304 6,100 2,400 Climbing Atlanta TRACON
12:37PM 34.0446 -84.5241 349° North  Level FlightAware Approximate
12:37PM 33.7833 -84.5833 360° North 280 322 8,200  Level Atlanta TRACON
12:38PM 34.1410 -84.5498 347° North  Level FlightAware Approximate
12:38PM 33.9014 -84.5994 354° North 286 329 10,900  Level Atlanta Center
12:39PM 34.2425 -84.5763 349° North  Level FlightAware Approximate
12:39PM 33.9997 -84.6050 357° North 320 368 11,800  Level Atlanta Center
12:40PM 34.0978 -84.6083 358° North 351 404 14,300 2,100 Climbing Atlanta Center
12:41PM 34.1978 -84.6314 349° North 356 410 16,100 1,800 Climbing Atlanta Center
12:42PM 34.2978 -84.6625 346° North 361 415 17,900 1,560 Climbing Atlanta Center
12:43PM 34.4019 -84.6933 346° North 368 423 19,300 1,320 Climbing Atlanta Center
12:44PM 34.4978 -84.7219 346° North 388 447 20,600 1,440 Climbing Atlanta Center
12:45PM 34.6103 -84.7506 348° North 399 459 22,200 1,320 Climbing Atlanta Center
12:46PM 34.7186 -84.7817 347° North 399 459 23,300 1,080 Climbing Atlanta Center
12:47PM 34.8311 -84.8206 344° North 399 459 24,400 1,260 Climbing Atlanta Center
12:48PM 34.9436 -84.8547 346° North 404 465 25,900 1,200 Climbing Atlanta Center
12:49PM 35.0581 -84.8861 347° North 416 479 26,900 540 Climbing Atlanta Center
12:50PM 35.1747 -84.9078 351° North 416 479 27,000  Climbing Atlanta Center
12:51PM 35.2997 -84.9344 350° North 431 496 27,000  Level Atlanta Center
12:52PM 35.4206 -84.9639 349° North 441 507 27,000  Level Atlanta Center
12:53PM 35.5456 -84.9908 350° North 447 514 27,000  Level Atlanta Center
12:54PM 35.6642 -85.0228 348° North 447 514 27,000  Level Atlanta Center
12:55PM 35.7872 -85.0447 352° North 447 514 27,000  Level Atlanta Center
12:56PM 35.9144 -85.0567 356° North 447 514 27,000  Level Atlanta Center
12:57PM 35.9933 -85.0631 356° North 451 519 27,000 780 Level Indianapolis Center
12:58PM 36.1183 -85.0758 355° North 447 514 28,200 1,260 Climbing Indianapolis Center
12:59PM 36.2369 -85.1075 348° North 433 498 29,700 1,260 Climbing Indianapolis Center
01:00PM 36.3503 -85.1467 344° North 424 488 30,900 960 Climbing Indianapolis Center
01:01PM 36.4639 -85.1867 344° North 424 488 31,800 480 Climbing Indianapolis Center
01:02PM 36.5800 -85.2164 348° North 427 491 32,000 60 Climbing Indianapolis Center
01:03PM 36.6978 -85.2422 350° North 430 495 32,000  Level Indianapolis Center
01:04PM 36.8178 -85.2592 354° North 431 496 32,000  Level Indianapolis Center
01:05PM 36.9600 -85.2808 353° North 430 495 32,000  Level Indianapolis Center
01:06PM 37.0806 -85.2903 356° North 429 494 32,000  Level Indianapolis Center
01:07PM 37.1989 -85.3094 353° North 426 490 32,000  Level Indianapolis Center
01:08PM 37.3156 -85.3339 351° North 424 488 32,000  Level Indianapolis Center
01:09PM 37.4317 -85.3603 350° North 421 484 32,000  Level Indianapolis Center
01:10PM 37.5450 -85.3933 347° North 417 480 32,000  Level Indianapolis Center
01:11PM 37.6614 -85.4200 350° North 419 482 32,000  Level Indianapolis Center
01:12PM 37.7917 -85.4664 344° North 416 479 32,000  Level Indianapolis Center
01:13PM 37.8867 -85.5033 343° North 424 488 32,000  Level Indianapolis Center
01:15PM 37.9995 -85.5368 347° North  Level FlightAware Approximate
01:16PM 38.1283 -85.6006 347° North 419 482 32,000  Level Indianapolis Center
01:17PM 38.2467 -85.6019 359° North 425 489 32,000  Level Indianapolis Center
01:18PM 38.3633 -85.6014 360° North 424 488 32,000  Level Indianapolis Center
01:19PM 38.4822 -85.5894 North 427 491 32,000  Level Indianapolis Center
01:20PM 38.6003 -85.5778 North 427 491 32,000 -180 Level Indianapolis Center
01:21PM 38.7419 -85.5878 357° North 423 487 31,700 -540 Descending Indianapolis Center
01:22PM 38.8644 -85.6011 355° North 437 503 31,000 -360 Descending Indianapolis Center
01:23PM 38.9886 -85.6142 355° North 445 512 31,000  Level Indianapolis Center
01:24PM 39.1111 -85.6239 356° North 442 509 31,000 -180 Level Indianapolis Center
01:25PM 39.2317 -85.6322 357° North 434 499 30,700 -540 Descending Indianapolis Center
01:26PM 39.3567 -85.6358 359° North 445 512 29,900 -840 Descending Indianapolis Center
01:27PM 39.4822 -85.6289 North 450 518 29,100 -480 Descending Indianapolis Center
01:28PM 39.6325 -85.6186 North 451 519 29,000 -60 Descending Indianapolis Center
01:29PM 39.7419 -85.6222 359° North 447 514 29,000 -60 Level Indianapolis Center
01:30PM 39.8681 -85.6297 357° North 448 516 28,900 -780 Descending Indianapolis Center
01:31PM 40.0142 -85.6367 358° North 447 514 27,400 -1,920 Descending Indianapolis Center
01:32PM 40.1314 -85.6311 North 427 491 25,000 -1,980 Descending Indianapolis Center
01:32PM 40.1461 -85.6286 North 422 486 24,800 -780 Descending Chicago Center
01:33PM 40.2822 -85.6419 356° North 411 473 24,000 -420 Descending Chicago Center
01:34PM 40.3606 -85.7389 317° Northwest 390 449 24,000  Level Chicago Center
01:35PM 40.4147 -85.8164 313° West 400 460 24,000  Level Indianapolis Center
01:35PM 40.4400 -85.8483 316° Northwest 406 467 24,000 -480 Level Chicago Center
01:36PM 40.5250 -85.9494 318° Northwest 412 474 23,400 -540 Descending Chicago Center
01:37PM 40.6067 -86.0561 315° West 412 474 22,900 -240 Descending Chicago Center
01:39PM 40.6889 -86.1614 316° Northwest 413 475 23,000  Climbing Chicago Center
01:40PM 40.7836 -86.2925 314° West 409 471 23,000  Level Chicago Center
01:41PM 40.8675 -86.3939 318° Northwest 410 472 23,000  Level Chicago Center
01:42PM 40.9458 -86.4975 315° West 400 460 23,000  Level Chicago Center
01:43PM 41.0178 -86.6117 310° West 403 464 23,000 -120 Level Chicago Center
01:44PM 41.1083 -86.7353 314° West 407 468 22,800 -1,380 Descending Chicago Center
01:45PM 41.1869 -86.8333 317° Northwest 395 455 20,200 -3,060 Descending Chicago Center
01:46PM 41.2653 -86.9217 320° Northwest 376 433 16,500 -3,000 Descending Chicago Center
01:47PM 41.3428 -87.0094 320° Northwest 370 426 14,000 -2,100 Descending Chicago Center
01:48PM 41.4119 -87.0886 319° Northwest 337 388 12,200 -1,020 Descending Chicago Center
01:49PM 41.4867 -87.1875 315° West 320 368 12,000 -120 Descending Chicago Center
01:50PM 41.5431 -87.2675 313° West 304 350 12,000 -60 Level Chicago Center
01:51PM 41.5911 -87.3433 310° West 276 318 11,900 -240 Descending Chicago Center
01:52PM 41.6414 -87.4192 312° West 275 316 11,600 -1,020 Descending Chicago Center
01:53PM 41.6889 -87.4892 312° West 262 302 9,800 -1,800 Descending Chicago Center
01:54PM 41.7450 -87.5725 312° West 253 291 8,000 -1,260 Descending Chicago Center
01:55PM 41.7914 -87.6469 310° West 261 300 7,300 -540 Descending Chicago Center
01:56PM 41.8428 -87.7169 315° West 264 304 6,900 -180 Descending Chicago Center
01:57PM 41.8681 -87.8106 290° West 266 306 7,000 60 Climbing Chicago Center
01:58PM 41.9000 -87.9000 296° West 256 295 7,100  Climbing Chicago TRACON
01:59PM 41.9000 -87.9833 270° West 224 258 7,100 -660 Level Chicago TRACON
02:00PM 41.9000 -88.0667 270° West 207 238 5,900 -1,200 Descending Chicago TRACON